Terminal Aerodrome Forecast
Issued by NWS

Home | Current Version | Previous Version | Text Only | Print | Product List | Glossary On
Versions: 1 2 3 4 5 6 7 8 9 10 11 12 13 14 15
108
FTUS41 KPHI 261952 AAA
TAFMIV
TAF AMD
KMIV 261952Z 2620/2718 23008KT P6SM SCT210
     FM262200 22006KT P6SM VCTS BKN060CB
     FM270300 VRB03KT P6SM -SHRA VCTS OVC070CB
     FM270600 20004KT 5SM -TSRA OVC050CB
     FM270700 19004KT 5SM -SHRA VCTS OVC040CB
     FM271000 17005KT 2SM -SHRA OVC017
     FM271200 17005KT 2SM -SHRA OVC007
     FM271400 11004KT P6SM OVC007
     FM271600 08005KT P6SM OVC010=

USA.gov is the U.S. government's official web portal to all federal, state and local government web resources and services.